Time;durP1;ratioP1;P1;durP2;ratioP2;P2;SDS_P1;SDS_P2;PMS_P1;PMS_P2;Temp;Humidity;BMP_temperature;BMP_pressure;BME280_temperature;BME280_humidity;BME280_pressure;Samples;Min_cycle;Max_cycle;Signal;HPM_P1;HPM_P2
2023/04/06 00:01:47;;;;;;;;;;;-0.84;100.08;;;;;;2673400;76;20675;-90
2023/04/06 00:05:15;;;;;;;;;;;-0.85;100.12;;;;;;2672465;76;20425;-90
2023/04/06 00:08:44;;;;;;;;;;;-0.86;100.12;;;;;;2672231;76;20439;-90
2023/04/06 00:12:12;;;;;;;;;;;-0.84;100.22;;;;;;2672851;76;20492;-90
2023/04/06 00:15:40;;;;;;;;;;;-0.88;100.37;;;;;;2672917;76;20460;-90
2023/04/06 00:19:08;;;;;;;;;;;-0.94;100.51;;;;;;2672885;76;20456;-91
2023/04/06 00:22:36;;;;;;;;;;;-0.95;100.70;;;;;;2672548;76;20455;-90
2023/04/06 00:26:05;;;;;;;;;;;-0.97;100.90;;;;;;2672667;76;20418;-90
2023/04/06 00:29:33;;;;;;;;;;;-1.01;100.96;;;;;;2672145;76;20421;-90
2023/04/06 00:33:01;;;;;;;;;;;-1.04;101.22;;;;;;2672373;76;20444;-91
2023/04/06 00:36:29;;;;;;;;;;;-1.06;101.49;;;;;;2672168;76;20415;-88
2023/04/06 00:39:57;;;;;;;;;;;-1.06;101.56;;;;;;2672328;76;20422;-89
2023/04/06 00:43:25;;;;;;;;;;;-1.11;101.52;;;;;;2672998;76;20417;-90
2023/04/06 00:46:54;;;;;;;;;;;-1.12;101.57;;;;;;2672470;76;20446;-90
2023/04/06 00:50:22;;;;;;;;;;;-1.17;101.66;;;;;;2673036;76;20439;-90
2023/04/06 00:53:50;;;;;;;;;;;-1.18;101.75;;;;;;2672395;76;20424;-90
2023/04/06 00:57:18;;;;;;;;;;;-1.19;101.74;;;;;;2672071;76;20458;-89
2023/04/06 01:00:46;;;;;;;;;;;-1.17;101.77;;;;;;2672772;76;20430;-90
2023/04/06 01:04:15;;;;;;;;;;;-1.19;101.73;;;;;;2672748;76;20418;-90
2023/04/06 01:07:43;;;;;;;;;;;-1.20;101.83;;;;;;2672199;76;20318;-90
2023/04/06 01:11:11;;;;;;;;;;;-1.21;101.91;;;;;;2672646;76;20424;-89
2023/04/06 01:14:39;;;;;;;;;;;-1.24;101.93;;;;;;2672151;76;20456;-90
2023/04/06 01:18:08;;;;;;;;;;;-1.21;102.01;;;;;;2672313;76;20407;-89
2023/04/06 01:21:36;;;;;;;;;;;-1.26;102.07;;;;;;2672502;76;20872;-89
2023/04/06 01:25:04;;;;;;;;;;;-1.25;102.12;;;;;;2672790;76;20817;-89
2023/04/06 01:28:33;;;;;;;;;;;-1.27;102.15;;;;;;2671976;76;20466;-90
2023/04/06 01:32:01;;;;;;;;;;;-1.26;102.16;;;;;;2672723;76;20429;-91
2023/04/06 01:35:29;;;;;;;;;;;-1.30;102.22;;;;;;2672682;76;20444;-90
2023/04/06 01:38:57;;;;;;;;;;;-1.34;102.27;;;;;;2673055;76;20469;-90
2023/04/06 01:42:26;;;;;;;;;;;-1.34;102.34;;;;;;2672087;76;20953;-89
2023/04/06 01:45:54;;;;;;;;;;;-1.35;102.51;;;;;;2676541;76;20450;-90
2023/04/06 01:49:22;;;;;;;;;;;-1.36;102.63;;;;;;2673118;76;20471;-90
2023/04/06 01:52:50;;;;;;;;;;;-1.40;102.66;;;;;;2672248;76;20414;-89
2023/04/06 01:56:18;;;;;;;;;;;-1.43;102.70;;;;;;2672825;76;20422;-89
2023/04/06 01:59:46;;;;;;;;;;;-1.45;102.77;;;;;;2673052;76;20471;-90
2023/04/06 02:03:15;;;;;;;;;;;-1.46;102.97;;;;;;2671683;76;20318;-89
2023/04/06 02:06:43;;;;;;;;;;;-1.46;103.08;;;;;;2671990;76;20319;-90
2023/04/06 02:10:11;;;;;;;;;;;-1.47;103.13;;;;;;2672196;76;20425;-90
2023/04/06 02:13:39;;;;;;;;;;;-1.50;103.16;;;;;;2673017;76;20349;-90
2023/04/06 02:17:07;;;;;;;;;;;-1.56;103.16;;;;;;2672513;76;20693;-90
2023/04/06 02:20:35;;;;;;;;;;;-1.55;103.24;;;;;;2672594;76;20420;-89
2023/04/06 02:24:04;;;;;;;;;;;-1.59;103.33;;;;;;2671992;76;20303;-90
2023/04/06 02:27:32;;;;;;;;;;;-1.57;103.53;;;;;;2672315;76;20465;-90
2023/04/06 02:31:00;;;;;;;;;;;-1.59;103.57;;;;;;2672434;76;20892;-89
2023/04/06 02:34:29;;;;;;;;;;;-1.62;103.66;;;;;;2672191;76;21071;-90
2023/04/06 02:37:57;;;;;;;;;;;-1.65;103.77;;;;;;2672356;76;20445;-90
2023/04/06 02:41:26;;;;;;;;;;;-1.65;103.93;;;;;;2672758;76;20429;-90
2023/04/06 02:44:54;;;;;;;;;;;-1.65;104.02;;;;;;2672736;76;20945;-90
2023/04/06 02:48:22;;;;;;;;;;;-1.65;104.13;;;;;;2672523;76;20330;-89
2023/04/06 02:51:51;;;;;;;;;;;-1.67;104.16;;;;;;2672196;76;20334;-88
2023/04/06 02:55:19;;;;;;;;;;;-1.64;104.22;;;;;;2671773;76;20302;-89
2023/04/06 02:58:47;;;;;;;;;;;-1.65;104.28;;;;;;2672736;76;20333;-88
2023/04/06 03:02:15;;;;;;;;;;;-1.64;104.34;;;;;;2672321;76;20358;-89
2023/04/06 03:05:47;;;;;;;;;;;-1.68;104.46;;;;;;2672232;76;20455;-89
2023/04/06 03:09:20;;;;;;;;;;;-1.74;104.61;;;;;;2672186;76;20452;-88
2023/04/06 03:12:45;;;;;;;;;;;-1.74;104.60;;;;;;2670455;76;20424;-89
2023/04/06 03:16:14;;;;;;;;;;;-1.75;104.57;;;;;;2672434;76;20358;-89
2023/04/06 03:19:42;;;;;;;;;;;-1.72;104.63;;;;;;2672772;76;20492;-89
2023/04/06 03:23:14;;;;;;;;;;;-1.75;104.74;;;;;;2671576;76;20437;-88
2023/04/06 03:26:42;;;;;;;;;;;-1.77;104.73;;;;;;2671637;76;20656;-89
2023/04/06 03:30:10;;;;;;;;;;;-1.77;104.81;;;;;;2672124;76;20529;-90
2023/04/06 03:33:39;;;;;;;;;;;-1.80;104.91;;;;;;2672408;76;20358;-89
2023/04/06 03:37:07;;;;;;;;;;;-1.79;104.96;;;;;;2672853;76;20358;-89
2023/04/06 03:40:35;;;;;;;;;;;-1.79;105.00;;;;;;2672029;76;20467;-89
2023/04/06 03:44:03;;;;;;;;;;;-1.83;105.02;;;;;;2672682;76;20483;-89
2023/04/06 03:47:31;;;;;;;;;;;-1.79;105.14;;;;;;2672629;76;20765;-89
2023/04/06 03:51:00;;;;;;;;;;;-1.82;105.27;;;;;;2672120;76;20495;-89
2023/04/06 03:54:28;;;;;;;;;;;-1.82;105.47;;;;;;2671637;76;20425;-89
2023/04/06 03:57:56;;;;;;;;;;;-1.79;105.62;;;;;;2672541;76;20442;-89
2023/04/06 04:01:25;;;;;;;;;;;-1.78;105.66;;;;;;2671931;76;20935;-89
2023/04/06 04:04:55;;;;;;;;;;;-1.74;105.79;;;;;;2672386;76;20436;-89
2023/04/06 04:08:24;;;;;;;;;;;-1.75;105.82;;;;;;2671876;76;20323;-89
2023/04/06 04:11:52;;;;;;;;;;;-1.75;105.89;;;;;;2671925;76;20392;-89
2023/04/06 04:15:20;;;;;;;;;;;-1.72;105.86;;;;;;2671753;76;20439;-89
2023/04/06 04:18:48;;;;;;;;;;;-1.68;106.06;;;;;;2671887;76;20775;-89
2023/04/06 04:22:16;;;;;;;;;;;-1.64;106.17;;;;;;2672132;76;20343;-88
2023/04/06 04:25:50;;;;;;;;;;;-1.61;106.40;;;;;;2671772;76;20325;-89
2023/04/06 04:29:15;;;;;;;;;;;-1.45;106.59;;;;;;2672097;76;20445;-89
2023/04/06 04:32:43;;;;;;;;;;;-1.35;106.81;;;;;;2672315;76;20454;-88
2023/04/06 04:36:11;;;;;;;;;;;-1.20;106.98;;;;;;2672015;76;20401;-89
2023/04/06 04:39:39;;;;;;;;;;;-1.02;107.11;;;;;;2672199;76;20305;-89
2023/04/06 04:43:07;;;;;;;;;;;-0.88;107.23;;;;;;2672552;76;20615;-89
2023/04/06 04:46:37;;;;;;;;;;;-0.73;107.21;;;;;;2672122;76;20456;-89
2023/04/06 04:50:06;;;;;;;;;;;-0.66;107.13;;;;;;2670923;76;20460;-89
2023/04/06 04:53:34;;;;;;;;;;;-0.59;107.07;;;;;;2670238;76;20325;-89
2023/04/06 04:57:02;;;;;;;;;;;-0.52;106.95;;;;;;2669533;76;20319;-89
2023/04/06 05:00:30;;;;;;;;;;;-0.50;106.81;;;;;;2667614;76;20304;-89
2023/04/06 05:04:01;;;;;;;;;;;-0.58;106.96;;;;;;2668001;76;20512;-89
2023/04/06 05:07:30;;;;;;;;;;;-0.60;107.01;;;;;;2665873;76;20569;-88
2023/04/06 05:10:58;;;;;;;;;;;-0.55;106.98;;;;;;2667138;76;20345;-89
2023/04/06 05:14:27;;;;;;;;;;;-0.47;106.92;;;;;;2667797;76;20442;-89
2023/04/06 05:18:01;;;;;;;;;;;-0.41;106.94;;;;;;2667935;76;20514;-90
2023/04/06 05:21:34;;;;;;;;;;;-0.37;107.18;;;;;;2667404;76;20467;-91
2023/04/06 05:25:12;;;;;;;;;;;;;;;;;;;;;
2023/04/06 05:28:35;;;;;;;;;;;-0.21;107.25;;;;;;2669726;76;20460;-91
2023/04/06 05:35:46;;;;;;;;;;;-0.05;107.35;;;;;;2668352;76;20472;-90
2023/04/06 05:39:28;;;;;;;;;;;0.02;107.54;;;;;;2668325;76;20984;-90
2023/04/06 05:43:24;;;;;;;;;;;;;;;;;;;;;
2023/04/06 05:46:46;;;;;;;;;;;0.22;107.78;;;;;;2667785;76;20449;-91
2023/04/06 05:50:17;;;;;;;;;;;0.37;107.82;;;;;;2668806;76;20476;-90
2023/04/06 05:53:48;;;;;;;;;;;0.50;107.85;;;;;;2667610;76;21032;-90
2023/04/06 05:57:35;;;;;;;;;;;0.62;108.10;;;;;;2668423;76;20515;-90
2023/04/06 06:01:13;;;;;;;;;;;0.80;108.10;;;;;;2668417;76;20511;-90
2023/04/06 06:08:38;;;;;;;;;;;1.13;107.99;;;;;;2668878;76;20458;-90
2023/04/06 06:12:15;;;;;;;;;;;1.32;108.11;;;;;;2668547;76;21072;-90
2023/04/06 06:15:47;;;;;;;;;;;1.48;108.50;;;;;;2668054;76;20484;-90
2023/04/06 06:19:15;;;;;;;;;;;1.73;108.68;;;;;;2668040;76;20517;-91
2023/04/06 06:23:00;;;;;;;;;;;1.96;108.91;;;;;;2667968;76;20479;-90
2023/04/06 06:26:32;;;;;;;;;;;2.17;109.10;;;;;;2667853;76;20457;-90
2023/04/06 06:29:57;;;;;;;;;;;2.30;109.19;;;;;;2667165;76;20965;-90
2023/04/06 06:33:34;;;;;;;;;;;2.43;109.67;;;;;;2668062;76;20941;-90
2023/04/06 06:37:03;;;;;;;;;;;2.54;109.64;;;;;;2668815;76;20522;-91
2023/04/06 06:40:36;;;;;;;;;;;2.67;109.62;;;;;;2667725;76;20445;-90
2023/04/06 06:44:13;;;;;;;;;;;2.79;109.60;;;;;;2666893;76;20709;-91
2023/04/06 06:47:44;;;;;;;;;;;2.86;109.48;;;;;;2668946;76;20859;-90
2023/04/06 06:51:30;;;;;;;;;;;2.99;109.53;;;;;;2668812;76;20458;-90
2023/04/06 06:55:00;;;;;;;;;;;3.14;109.55;;;;;;2668938;76;20473;-91
2023/04/06 06:58:33;;;;;;;;;;;3.21;109.52;;;;;;2669754;76;20353;-91
2023/04/06 07:05:59;;;;;;;;;;;3.54;110.13;;;;;;2670028;76;20503;-90
2023/04/06 07:09:27;;;;;;;;;;;3.70;110.77;;;;;;2669160;76;20488;-91
2023/04/06 07:12:56;;;;;;;;;;;3.83;111.05;;;;;;2669464;76;20453;-91
2023/04/06 07:16:24;;;;;;;;;;;3.89;111.29;;;;;;2668838;76;20497;-90
2023/04/06 07:20:00;;;;;;;;;;;3.97;111.75;;;;;;2668686;76;20474;-92
2023/04/06 07:23:25;;;;;;;;;;;4.15;112.04;;;;;;2669272;76;20494;-91
2023/04/06 07:26:53;;;;;;;;;;;4.31;112.13;;;;;;2669835;76;20489;-90
2023/04/06 07:30:22;;;;;;;;;;;4.42;112.23;;;;;;2668461;76;20475;-91
2023/04/06 07:33:50;;;;;;;;;;;4.58;111.91;;;;;;2669632;76;20948;-91
2023/04/06 07:37:23;;;;;;;;;;;4.73;111.79;;;;;;2669087;76;20544;-91
2023/04/06 07:40:51;;;;;;;;;;;4.84;111.63;;;;;;2668703;76;20470;-91
2023/04/06 07:44:33;;;;;;;;;;;5.02;111.68;;;;;;2668544;76;20481;-91
2023/04/06 07:48:05;;;;;;;;;;;5.20;111.53;;;;;;2668176;76;20436;-92
2023/04/06 07:51:33;;;;;;;;;;;5.33;111.20;;;;;;2669238;76;20443;-92
2023/04/06 07:55:01;;;;;;;;;;;5.53;111.00;;;;;;2669235;76;20727;-91
2023/04/06 07:58:33;;;;;;;;;;;5.68;110.54;;;;;;2668953;76;20335;-92
2023/04/06 08:02:06;;;;;;;;;;;5.94;110.28;;;;;;2668963;76;20513;-92
2023/04/06 08:05:34;;;;;;;;;;;6.24;109.31;;;;;;2669430;76;20474;-92
2023/04/06 08:09:03;;;;;;;;;;;6.74;108.66;;;;;;2668488;76;20465;-92
2023/04/06 08:12:33;;;;;;;;;;;7.19;107.44;;;;;;2669613;76;20461;-92
2023/04/06 08:16:07;;;;;;;;;;;7.45;106.22;;;;;;2669017;76;21048;-92
2023/04/06 08:19:35;;;;;;;;;;;7.59;106.45;;;;;;2669609;76;20469;-92
2023/04/06 08:23:10;;;;;;;;;;;7.62;106.18;;;;;;2669026;76;20484;-92
2023/04/06 08:26:39;;;;;;;;;;;7.76;106.24;;;;;;2669799;76;20477;-92
2023/04/06 08:30:08;;;;;;;;;;;8.14;104.37;;;;;;2668440;76;20473;-92
2023/04/06 08:33:36;;;;;;;;;;;8.56;103.51;;;;;;2669613;76;20349;-92
2023/04/06 08:37:05;;;;;;;;;;;8.49;101.26;;;;;;2669926;76;20365;-92
2023/04/06 08:40:33;;;;;;;;;;;8.50;101.64;;;;;;2670006;76;20957;-91
2023/04/06 08:44:04;;;;;;;;;;;8.34;101.64;;;;;;2668507;76;20450;-93
2023/04/06 08:47:32;;;;;;;;;;;8.22;102.02;;;;;;2669299;76;20363;-92
2023/04/06 08:51:01;;;;;;;;;;;7.97;100.74;;;;;;2670228;76;20439;-92
2023/04/06 08:54:29;;;;;;;;;;;7.91;100.60;;;;;;2669033;76;20454;-92
2023/04/06 08:57:57;;;;;;;;;;;7.85;101.07;;;;;;2670140;76;20499;-92
2023/04/06 09:01:25;;;;;;;;;;;7.76;100.76;;;;;;2669103;76;20372;-92
2023/04/06 09:04:54;;;;;;;;;;;7.82;100.24;;;;;;2670181;76;20954;-91
2023/04/06 09:08:22;;;;;;;;;;;7.81;99.64;;;;;;2669078;76;20498;-92
2023/04/06 09:12:05;;;;;;;;;;;7.79;99.29;;;;;;2668794;76;20467;-92
2023/04/06 09:15:32;;;;;;;;;;;7.79;98.59;;;;;;2669232;76;20472;-93
2023/04/06 09:19:07;;;;;;;;;;;7.92;98.37;;;;;;2668615;76;20428;-92
2023/04/06 09:22:31;;;;;;;;;;;7.87;98.25;;;;;;2669179;76;20982;-92
2023/04/06 09:26:00;;;;;;;;;;;7.89;97.62;;;;;;2670008;76;20356;-93
2023/04/06 09:29:34;;;;;;;;;;;8.11;97.23;;;;;;2673479;76;20342;-92
2023/04/06 09:33:16;;;;;;;;;;;8.14;97.39;;;;;;2667664;76;20843;-92
2023/04/06 09:36:31;;;;;;;;;;;8.24;97.55;;;;;;2668869;76;20514;-92
2023/04/06 09:40:00;;;;;;;;;;;8.28;97.35;;;;;;2668769;76;20472;-92
2023/04/06 09:43:28;;;;;;;;;;;8.20;97.67;;;;;;2669212;76;20434;-92
2023/04/06 09:46:59;;;;;;;;;;;8.38;96.99;;;;;;2668967;76;20810;-92
2023/04/06 09:50:33;;;;;;;;;;;8.48;96.41;;;;;;2668408;76;20502;-92
2023/04/06 09:54:04;;;;;;;;;;;8.60;96.49;;;;;;2668779;76;20670;-92
2023/04/06 09:57:48;;;;;;;;;;;8.89;96.91;;;;;;2669385;76;20371;-92
2023/04/06 10:01:24;;;;;;;;;;;8.95;95.81;;;;;;2668631;76;20460;-91
2023/04/06 10:05:20;;;;;;;;;;;9.18;95.32;;;;;;2669849;76;20459;-92
2023/04/06 10:08:58;;;;;;;;;;;9.54;95.07;;;;;;2668711;76;20436;-92
2023/04/06 10:12:37;;;;;;;;;;;9.68;94.27;;;;;;2669771;76;20980;-92
2023/04/06 10:16:11;;;;;;;;;;;9.40;91.75;;;;;;2668722;76;21097;-92
2023/04/06 10:19:54;;;;;;;;;;;9.51;91.58;;;;;;2668334;76;20477;-91
2023/04/06 10:23:19;;;;;;;;;;;9.67;92.60;;;;;;2668906;76;20464;-91
2023/04/06 10:26:53;;;;;;;;;;;9.76;91.94;;;;;;2668997;76;20524;-92
2023/04/06 10:30:27;;;;;;;;;;;10.08;91.69;;;;;;2668900;76;20491;-92
2023/04/06 10:34:03;;;;;;;;;;;10.24;90.95;;;;;;2669163;76;20481;-91
2023/04/06 10:37:28;;;;;;;;;;;10.56;90.01;;;;;;2668628;76;20439;-92
2023/04/06 10:41:02;;;;;;;;;;;10.94;90.00;;;;;;2668379;76;20367;-92
2023/04/06 10:44:37;;;;;;;;;;;10.75;89.94;;;;;;2668939;76;20495;-92
2023/04/06 10:48:13;;;;;;;;;;;10.16;90.25;;;;;;2669086;76;20850;-92
2023/04/06 10:51:41;;;;;;;;;;;9.75;89.76;;;;;;2669005;76;20430;-92
2023/04/06 10:55:24;;;;;;;;;;;9.74;89.44;;;;;;2669062;76;20433;-92
2023/04/06 10:59:02;;;;;;;;;;;10.05;89.95;;;;;;2669495;76;20471;-92
2023/04/06 11:02:33;;;;;;;;;;;10.06;89.47;;;;;;2668941;76;20504;-91
2023/04/06 11:06:10;;;;;;;;;;;;;;;;;;;;;
2023/04/06 11:09:55;;;;;;;;;;;10.30;88.22;;;;;;2668088;76;20800;-92
2023/04/06 11:13:28;;;;;;;;;;;10.51;88.11;;;;;;2668107;76;20441;-92
2023/04/06 11:17:14;;;;;;;;;;;10.55;88.14;;;;;;2668651;76;20462;-92
2023/04/06 11:20:37;;;;;;;;;;;10.53;87.89;;;;;;2668347;76;20411;-92
2023/04/06 11:24:07;;;;;;;;;;;10.56;87.74;;;;;;2668132;76;20453;-92
2023/04/06 11:27:43;;;;;;;;;;;10.45;87.53;;;;;;2668661;76;20464;-92
2023/04/06 11:31:19;;;;;;;;;;;10.34;87.45;;;;;;2668623;76;20448;-92
2023/04/06 11:34:56;;;;;;;;;;;10.65;87.90;;;;;;2668719;76;20436;-92
2023/04/06 11:38:27;;;;;;;;;;;10.67;88.06;;;;;;2668539;76;21889;-92
2023/04/06 11:42:07;;;;;;;;;;;10.82;88.16;;;;;;2668889;76;20810;-92
2023/04/06 11:45:46;;;;;;;;;;;10.88;88.76;;;;;;2668416;76;20349;-92
2023/04/06 11:49:15;;;;;;;;;;;10.81;88.28;;;;;;2669043;76;20447;-92
2023/04/06 11:52:59;;;;;;;;;;;10.65;87.53;;;;;;2668205;76;20900;-92
2023/04/06 11:56:21;;;;;;;;;;;10.92;86.82;;;;;;2667350;76;20585;-92
2023/04/06 12:00:04;;;;;;;;;;;11.23;86.12;;;;;;2667778;76;20996;-92
2023/04/06 12:03:33;;;;;;;;;;;11.46;85.64;;;;;;2667077;76;20505;-92
2023/04/06 12:07:13;;;;;;;;;;;11.73;85.80;;;;;;2668731;76;20451;-92
2023/04/06 12:10:52;;;;;;;;;;;11.81;85.77;;;;;;2668540;76;20474;-92
2023/04/06 12:14:21;;;;;;;;;;;11.90;85.17;;;;;;2668781;76;20500;-91
2023/04/06 12:17:58;;;;;;;;;;;12.16;84.83;;;;;;2668368;76;20470;-90
2023/04/06 12:21:23;;;;;;;;;;;12.57;83.80;;;;;;2668056;76;21022;-92
2023/04/06 12:24:52;;;;;;;;;;;13.71;83.87;;;;;;2671798;76;20522;-91
2023/04/06 12:28:35;;;;;;;;;;;14.32;83.42;;;;;;2670209;76;20483;-90
2023/04/06 12:39:37;;;;;;;;;;;13.43;80.89;;;;;;2670576;76;20488;-91
2023/04/06 12:43:06;;;;;;;;;;;13.18;82.04;;;;;;2671907;76;20367;-90
2023/04/06 12:46:34;;;;;;;;;;;12.47;81.97;;;;;;2672631;76;20327;-90
2023/04/06 12:50:03;;;;;;;;;;;12.60;82.03;;;;;;2672234;76;20449;-91
2023/04/06 12:53:31;;;;;;;;;;;12.35;81.68;;;;;;2672047;76;20412;-90
2023/04/06 12:57:00;;;;;;;;;;;12.51;82.20;;;;;;2672312;76;20421;-91
2023/04/06 13:00:29;;;;;;;;;;;12.53;82.21;;;;;;2671581;76;20366;-91
2023/04/06 13:03:58;;;;;;;;;;;12.84;82.17;;;;;;2672222;76;21089;-90
2023/04/06 13:07:27;;;;;;;;;;;12.99;81.60;;;;;;2672019;76;20416;-89
2023/04/06 13:10:55;;;;;;;;;;;13.67;81.94;;;;;;2672237;76;20352;-90
2023/04/06 13:14:23;;;;;;;;;;;13.83;81.67;;;;;;2671123;76;20449;-90
2023/04/06 13:17:51;;;;;;;;;;;13.90;81.27;;;;;;2672370;76;20766;-91
2023/04/06 13:21:20;;;;;;;;;;;13.48;80.88;;;;;;2672384;76;20447;-90
2023/04/06 13:24:48;;;;;;;;;;;13.47;80.15;;;;;;2672032;76;20424;-90
2023/04/06 13:28:17;;;;;;;;;;;13.02;79.88;;;;;;2672780;76;20441;-90
2023/04/06 13:31:45;;;;;;;;;;;12.62;80.53;;;;;;2670742;76;20437;-90
2023/04/06 13:35:13;;;;;;;;;;;12.76;80.21;;;;;;2672797;76;20453;-91
2023/04/06 13:38:41;;;;;;;;;;;12.87;80.12;;;;;;2672688;76;20432;-90
2023/04/06 13:42:09;;;;;;;;;;;13.15;81.33;;;;;;2672152;76;20428;-90
2023/04/06 13:45:38;;;;;;;;;;;13.26;81.60;;;;;;2672872;76;20471;-90
2023/04/06 13:49:06;;;;;;;;;;;13.34;81.76;;;;;;2672544;76;20876;-90
2023/04/06 13:52:35;;;;;;;;;;;13.19;81.32;;;;;;2672492;76;20473;-90
2023/04/06 13:56:04;;;;;;;;;;;13.43;81.66;;;;;;2673100;76;20429;-90
2023/04/06 13:59:32;;;;;;;;;;;13.17;80.40;;;;;;2672536;76;20445;-91
2023/04/06 14:03:00;;;;;;;;;;;13.56;80.36;;;;;;2672465;76;20436;-90
2023/04/06 14:06:28;;;;;;;;;;;13.62;80.32;;;;;;2672738;76;20437;-91
2023/04/06 14:09:56;;;;;;;;;;;14.01;80.32;;;;;;2672161;76;20548;-90
2023/04/06 14:13:24;;;;;;;;;;;14.39;79.91;;;;;;2672764;76;20921;-89
2023/04/06 14:16:52;;;;;;;;;;;13.98;78.79;;;;;;2673198;76;20455;-90
2023/04/06 14:20:20;;;;;;;;;;;13.94;79.84;;;;;;2671877;76;20436;-91
2023/04/06 14:23:48;;;;;;;;;;;13.98;80.43;;;;;;2672602;76;20687;-90
2023/04/06 14:27:16;;;;;;;;;;;13.98;80.38;;;;;;2672762;76;20429;-90
2023/04/06 14:30:44;;;;;;;;;;;13.83;79.94;;;;;;2673081;76;20438;-90
2023/04/06 14:34:13;;;;;;;;;;;13.37;79.55;;;;;;2672873;76;20420;-90
2023/04/06 14:37:41;;;;;;;;;;;13.00;78.95;;;;;;2672495;76;20882;-90
2023/04/06 14:41:10;;;;;;;;;;;12.42;78.75;;;;;;2672780;76;20438;-90
2023/04/06 14:44:42;;;;;;;;;;;12.42;79.35;;;;;;2672704;76;20416;-90
2023/04/06 14:48:11;;;;;;;;;;;12.51;79.29;;;;;;2672982;76;20882;-90
2023/04/06 14:51:38;;;;;;;;;;;12.60;79.55;;;;;;2673105;76;20933;-90
2023/04/06 14:55:06;;;;;;;;;;;12.47;79.61;;;;;;2672748;76;20416;-90
2023/04/06 14:58:35;;;;;;;;;;;15.15;80.35;;;;;;2673003;76;20425;-90
2023/04/06 15:02:03;;;;;;;;;;;20.33;74.90;;;;;;2672879;76;20454;-89
2023/04/06 15:05:31;;;;;;;;;;;21.83;68.46;;;;;;2672780;76;20428;-91
2023/04/06 15:09:00;;;;;;;;;;;24.82;67.35;;;;;;2672407;76;20334;-91
2023/04/06 15:12:29;;;;;;;;;;;25.15;64.35;;;;;;2672747;76;20398;-91
2023/04/06 15:15:57;;;;;;;;;;;25.77;62.95;;;;;;2672205;76;20452;-91
2023/04/06 15:19:26;;;;;;;;;;;26.25;62.33;;;;;;2672806;76;20890;-91
2023/04/06 15:22:54;;;;;;;;;;;23.03;58.54;;;;;;2672533;76;20430;-91
2023/04/06 15:26:23;;;;;;;;;;;23.51;60.34;;;;;;2672751;76;20430;-90
2023/04/06 15:29:51;;;;;;;;;;;25.71;60.26;;;;;;2672852;76;20448;-89
2023/04/06 15:33:19;;;;;;;;;;;23.64;57.05;;;;;;2672620;76;20432;-91
2023/04/06 15:36:47;;;;;;;;;;;24.14;58.99;;;;;;2672330;76;20430;-92
2023/04/06 15:40:15;;;;;;;;;;;24.55;57.13;;;;;;2672801;76;20425;-91
2023/04/06 15:43:43;;;;;;;;;;;24.42;57.04;;;;;;2672764;76;20445;-91
2023/04/06 15:47:11;;;;;;;;;;;24.32;57.14;;;;;;2672722;76;20406;-91
2023/04/06 15:50:39;;;;;;;;;;;24.71;56.73;;;;;;2672525;76;20318;-92
2023/04/06 15:54:08;;;;;;;;;;;18.13;57.59;;;;;;2672530;76;20357;-91
2023/04/06 15:57:41;;;;;;;;;;;15.38;62.92;;;;;;2672932;76;20433;-90
2023/04/06 16:01:06;;;;;;;;;;;14.52;66.80;;;;;;2672600;76;20479;-90
2023/04/06 16:04:34;;;;;;;;;;;14.04;69.07;;;;;;2672582;76;20455;-91
2023/04/06 16:08:04;;;;;;;;;;;19.48;67.84;;;;;;2672349;76;20462;-91
2023/04/06 16:11:32;;;;;;;;;;;17.85;62.02;;;;;;2672182;76;20320;-92
2023/04/06 16:15:00;;;;;;;;;;;20.27;64.61;;;;;;2672676;76;20321;-91
2023/04/06 16:18:29;;;;;;;;;;;22.83;61.01;;;;;;2671957;76;20442;-91
2023/04/06 16:21:57;;;;;;;;;;;22.87;58.96;;;;;;2672449;76;20466;-91
2023/04/06 16:25:26;;;;;;;;;;;22.68;58.88;;;;;;2672088;76;20437;-92
2023/04/06 16:28:54;;;;;;;;;;;17.40;59.92;;;;;;2672282;76;20925;-92
2023/04/06 16:32:22;;;;;;;;;;;15.52;63.78;;;;;;2671071;76;20444;-91
2023/04/06 16:35:50;;;;;;;;;;;14.19;66.30;;;;;;2671354;76;20437;-90
2023/04/06 16:39:18;;;;;;;;;;;15.62;67.74;;;;;;2670711;76;20426;-90
2023/04/06 16:42:47;;;;;;;;;;;20.55;64.08;;;;;;2670817;76;20434;-91
2023/04/06 16:46:15;;;;;;;;;;;22.46;60.71;;;;;;2672368;76;20421;-91
2023/04/06 16:49:44;;;;;;;;;;;22.93;59.51;;;;;;2673315;76;20937;-91
2023/04/06 16:53:12;;;;;;;;;;;22.39;59.83;;;;;;2670672;76;20469;-91
2023/04/06 16:56:40;;;;;;;;;;;20.80;61.06;;;;;;2670968;76;20387;-93
2023/04/06 17:00:08;;;;;;;;;;;19.05;63.06;;;;;;2671442;76;20871;-91
2023/04/06 17:03:39;;;;;;;;;;;16.96;65.62;;;;;;2671491;76;20411;-92
2023/04/06 17:07:09;;;;;;;;;;;17.60;67.19;;;;;;2671007;76;20422;-91
2023/04/06 17:10:37;;;;;;;;;;;17.08;66.68;;;;;;2669434;76;20973;-90
2023/04/06 17:14:05;;;;;;;;;;;14.70;68.20;;;;;;2670667;76;20938;-91
2023/04/06 17:17:33;;;;;;;;;;;13.04;70.97;;;;;;2671238;76;20908;-90
2023/04/06 17:21:02;;;;;;;;;;;11.97;73.29;;;;;;2670532;76;20488;-91
2023/04/06 17:24:30;;;;;;;;;;;11.29;74.63;;;;;;2671009;76;20445;-90
2023/04/06 17:27:58;;;;;;;;;;;10.72;75.48;;;;;;2671303;76;20444;-91
2023/04/06 17:31:26;;;;;;;;;;;10.33;75.94;;;;;;2671587;76;20477;-90
2023/04/06 17:34:54;;;;;;;;;;;9.97;76.29;;;;;;2670179;76;20961;-89
2023/04/06 17:38:23;;;;;;;;;;;9.64;76.54;;;;;;2670706;76;20414;-90
2023/04/06 17:41:51;;;;;;;;;;;9.34;76.80;;;;;;2670580;76;20813;-90
2023/04/06 17:45:19;;;;;;;;;;;9.05;76.98;;;;;;2670638;76;20409;-91
2023/04/06 17:48:48;;;;;;;;;;;8.72;77.12;;;;;;2671075;76;20436;-90
2023/04/06 17:52:16;;;;;;;;;;;8.46;77.25;;;;;;2671802;76;20422;-90
2023/04/06 17:55:44;;;;;;;;;;;8.16;77.39;;;;;;2671485;76;20324;-90
2023/04/06 17:59:12;;;;;;;;;;;7.89;77.79;;;;;;2671400;76;20436;-90
2023/04/06 18:02:40;;;;;;;;;;;7.60;78.08;;;;;;2670474;76;20457;-90
2023/04/06 18:06:11;;;;;;;;;;;7.35;78.33;;;;;;2671261;76;20326;-90
2023/04/06 18:09:41;;;;;;;;;;;7.15;78.56;;;;;;2670956;76;20416;-91
2023/04/06 18:13:10;;;;;;;;;;;6.96;78.82;;;;;;2670477;76;20419;-90
2023/04/06 18:16:39;;;;;;;;;;;6.82;79.15;;;;;;2670210;76;20513;-90
2023/04/06 18:20:07;;;;;;;;;;;6.68;79.43;;;;;;2669801;76;20451;-90
2023/04/06 18:23:36;;;;;;;;;;;6.53;79.80;;;;;;2670945;76;20426;-90
2023/04/06 18:27:04;;;;;;;;;;;6.41;80.29;;;;;;2671622;76;20427;-90
2023/04/06 18:30:32;;;;;;;;;;;6.25;80.56;;;;;;2671864;76;20412;-90
2023/04/06 18:34:02;;;;;;;;;;;6.13;80.85;;;;;;2670950;76;20408;-90
2023/04/06 18:37:30;;;;;;;;;;;6.01;81.14;;;;;;2670946;76;20459;-89
2023/04/06 18:40:58;;;;;;;;;;;5.90;81.47;;;;;;2672680;76;20357;-90
2023/04/06 18:44:26;;;;;;;;;;;5.77;81.79;;;;;;2672416;76;20473;-90
2023/04/06 18:47:54;;;;;;;;;;;5.65;82.17;;;;;;2671683;76;20473;-90
2023/04/06 18:51:23;;;;;;;;;;;5.53;82.37;;;;;;2673004;76;20546;-90
2023/04/06 18:54:51;;;;;;;;;;;5.45;82.60;;;;;;2672713;76;20465;-90
2023/04/06 18:58:20;;;;;;;;;;;5.36;82.84;;;;;;2672599;76;20433;-90
2023/04/06 19:01:52;;;;;;;;;;;5.30;83.06;;;;;;2672344;76;20432;-90
2023/04/06 19:05:18;;;;;;;;;;;5.20;83.29;;;;;;2672503;76;20422;-89
2023/04/06 19:08:46;;;;;;;;;;;5.10;83.61;;;;;;2671889;76;20442;-90
2023/04/06 19:12:14;;;;;;;;;;;5.00;84.10;;;;;;2670065;76;20412;-90
2023/04/06 19:15:42;;;;;;;;;;;4.92;84.43;;;;;;2670797;76;20492;-90
2023/04/06 19:19:13;;;;;;;;;;;4.81;84.63;;;;;;2671152;76;21479;-90
2023/04/06 19:22:43;;;;;;;;;;;4.75;84.84;;;;;;2671185;76;20488;-90
2023/04/06 19:26:11;;;;;;;;;;;4.64;85.08;;;;;;2671174;76;20897;-90
2023/04/06 19:29:39;;;;;;;;;;;4.58;85.33;;;;;;2671882;76;20534;-89
2023/04/06 19:33:07;;;;;;;;;;;4.51;85.59;;;;;;2670942;76;20695;-90
2023/04/06 19:36:36;;;;;;;;;;;4.46;85.76;;;;;;2670899;76;20436;-89
2023/04/06 19:40:09;;;;;;;;;;;4.41;85.97;;;;;;2671525;76;20912;-90
2023/04/06 19:43:34;;;;;;;;;;;4.37;86.20;;;;;;2671800;76;20938;-90
2023/04/06 19:47:02;;;;;;;;;;;4.32;86.51;;;;;;2671070;76;20537;-90
2023/04/06 19:50:30;;;;;;;;;;;4.28;86.83;;;;;;2671448;76;20548;-90
2023/04/06 19:53:58;;;;;;;;;;;4.23;87.06;;;;;;2671947;76;20432;-90
2023/04/06 19:57:26;;;;;;;;;;;4.18;87.33;;;;;;2671504;76;20592;-90
2023/04/06 20:00:54;;;;;;;;;;;4.15;87.54;;;;;;2671315;76;20432;-90
2023/04/06 20:04:23;;;;;;;;;;;4.20;87.80;;;;;;2671188;76;20454;-90
2023/04/06 20:07:51;;;;;;;;;;;4.30;88.05;;;;;;2670225;76;20436;-89
2023/04/06 20:11:20;;;;;;;;;;;4.41;88.28;;;;;;2670600;76;20440;-90
2023/04/06 20:14:49;;;;;;;;;;;4.45;88.40;;;;;;2670161;76;20422;-89
2023/04/06 20:18:17;;;;;;;;;;;4.41;88.58;;;;;;2670682;76;20302;-90
2023/04/06 20:21:47;;;;;;;;;;;4.32;88.72;;;;;;2669827;76;20692;-90
2023/04/06 20:25:15;;;;;;;;;;;4.30;88.95;;;;;;2671299;76;20873;-90
2023/04/06 20:28:46;;;;;;;;;;;4.32;89.08;;;;;;2670905;76;20453;-90
2023/04/06 20:32:19;;;;;;;;;;;4.38;89.26;;;;;;2670064;76;20357;-90
2023/04/06 20:35:47;;;;;;;;;;;4.45;89.34;;;;;;2670493;76;20446;-90
2023/04/06 20:39:15;;;;;;;;;;;4.44;89.47;;;;;;2671086;76;20987;-90
2023/04/06 20:42:43;;;;;;;;;;;4.42;89.79;;;;;;2671628;76;20421;-90